createdAt,value
2018-06-11T00:00:24.080Z,18.87
2018-06-11T00:02:54.524Z,20.03
2018-06-11T00:05:25.055Z,19.57
2018-06-11T00:07:55.580Z,17.67
2018-06-11T00:10:26.269Z,20.80
2018-06-11T00:12:56.889Z,17.77
2018-06-11T00:15:27.576Z,16.20
2018-06-11T00:17:57.808Z,17.70
2018-06-11T00:20:28.357Z,16.03
2018-06-11T00:22:59.143Z,17.70
2018-06-11T00:25:29.792Z,18.23
2018-06-11T00:28:00.289Z,16.37
2018-06-11T00:30:31.013Z,16.53
2018-06-11T00:33:01.538Z,13.60
2018-06-11T00:35:32.255Z,15.63
2018-06-11T00:38:02.844Z,14.37
2018-06-11T00:40:33.587Z,15.87
2018-06-11T00:43:04.041Z,13.10
2018-06-11T00:45:34.624Z,14.07
2018-06-11T00:48:05.178Z,15.50
2018-06-11T00:50:35.816Z,15.77
2018-06-11T00:53:06.537Z,13.40
2018-06-11T00:55:53.861Z,13.47
2018-06-11T00:58:24.052Z,13.33
2018-06-11T01:00:54.500Z,13.37
2018-06-11T01:03:25.173Z,13.73
2018-06-11T01:05:55.711Z,12.77
2018-06-11T01:08:26.327Z,14.10
2018-06-11T01:10:56.840Z,14.30
2018-06-11T01:13:27.691Z,15.30
2018-06-11T01:15:58.479Z,12.67
2018-06-11T01:18:30.108Z,14.10
2018-06-11T01:21:01.266Z,13.10
2018-06-11T01:23:32.067Z,14.43
2018-06-11T01:26:02.638Z,13.40
2018-06-11T01:28:33.506Z,14.63
2018-06-11T01:31:04.196Z,14.10
2018-06-11T01:33:35.530Z,12.23
2018-06-11T01:36:06.449Z,13.93
2018-06-11T01:38:37.164Z,12.30
2018-06-11T01:41:07.835Z,12.57
2018-06-11T01:43:38.613Z,13.57
2018-06-11T01:46:09.284Z,13.07
2018-06-11T01:48:39.949Z,11.90
2018-06-11T01:51:10.537Z,12.93
2018-06-11T01:53:41.262Z,11.90
2018-06-11T01:56:12.316Z,13.40
2018-06-11T01:58:43.010Z,12.80
2018-06-11T02:01:14.605Z,12.23
2018-06-11T02:03:45.224Z,14.13
2018-06-11T02:06:19.473Z,13.77
2018-06-11T02:08:50.175Z,13.20
2018-06-11T02:11:20.803Z,13.40
2018-06-11T02:13:51.086Z,12.60
2018-06-11T02:16:21.661Z,12.70
2018-06-11T02:18:52.233Z,12.90
2018-06-11T02:21:22.688Z,13.43
2018-06-11T02:23:53.476Z,13.40
2018-06-11T02:26:24.105Z,12.83
2018-06-11T02:28:54.822Z,13.00
2018-06-11T02:31:25.562Z,14.33
2018-06-11T02:33:56.188Z,12.60
2018-06-11T02:36:26.705Z,14.23
2018-06-11T02:38:57.452Z,13.87
2018-06-11T02:41:28.161Z,12.73
2018-06-11T02:43:58.631Z,14.10
2018-06-11T02:46:29.379Z,14.07
2018-06-11T02:49:00.594Z,12.90
2018-06-11T02:51:31.129Z,14.13
2018-06-11T02:54:02.317Z,15.30
2018-06-11T02:56:32.998Z,13.37
2018-06-11T02:59:03.632Z,13.87
2018-06-11T03:01:34.241Z,13.93
2018-06-11T03:04:04.785Z,13.27
2018-06-11T03:06:35.529Z,14.07
2018-06-11T03:09:08.016Z,14.37
2018-06-11T03:11:38.621Z,13.40
2018-06-11T03:14:09.132Z,13.97
2018-06-11T03:16:39.816Z,15.03
2018-06-11T03:19:10.549Z,12.93
2018-06-11T03:21:41.645Z,14.23
2018-06-11T03:24:13.779Z,12.87
2018-06-11T03:26:44.602Z,13.03
2018-06-11T03:29:15.343Z,15.50
2018-06-11T03:31:46.045Z,12.60
2018-06-11T03:34:16.995Z,14.20
2018-06-11T03:36:47.590Z,12.70
2018-06-11T03:39:18.337Z,12.83
2018-06-11T03:41:48.959Z,13.70
2018-06-11T03:44:19.526Z,14.03
2018-06-11T03:46:50.123Z,13.70
2018-06-11T03:49:20.809Z,12.50
2018-06-11T03:51:51.341Z,11.63
2018-06-11T03:54:22.068Z,12.80
2018-06-11T03:56:53.109Z,11.60
2018-06-11T03:59:23.892Z,12.73
2018-06-11T04:01:54.633Z,11.70
2018-06-11T04:04:25.304Z,11.87
2018-06-11T04:06:55.854Z,11.60
2018-06-11T04:09:26.536Z,12.50
2018-06-11T04:11:57.149Z,12.10
2018-06-11T04:14:27.697Z,12.07
2018-06-11T04:16:58.640Z,11.30
2018-06-11T04:19:29.914Z,11.40
2018-06-11T04:22:00.590Z,11.37
2018-06-11T04:24:31.405Z,10.37
2018-06-11T04:27:02.095Z,11.63
2018-06-11T04:29:33.838Z,11.07
2018-06-11T04:32:04.530Z,11.23
2018-06-11T04:34:35.372Z,10.90
2018-06-11T04:37:06.475Z,10.20
2018-06-11T04:39:37.306Z,11.23
2018-06-11T04:42:08.149Z,10.53
2018-06-11T04:44:38.714Z,11.10
2018-06-11T04:47:09.406Z,9.70
2018-06-11T04:49:40.123Z,9.13
2018-06-11T04:52:10.843Z,10.20
2018-06-11T04:54:41.497Z,10.10
2018-06-11T04:57:18.570Z,10.77
2018-06-11T04:59:49.202Z,10.60
2018-06-11T05:02:19.841Z,10.40
2018-06-11T05:04:50.515Z,9.40
2018-06-11T05:07:21.074Z,9.80
2018-06-11T05:09:51.582Z,10.97
2018-06-11T05:12:22.249Z,10.20
2018-06-11T05:14:52.843Z,9.13
2018-06-11T05:17:23.508Z,8.83
2018-06-11T05:19:53.998Z,8.20
2018-06-11T05:22:24.682Z,7.23
2018-06-11T05:24:54.931Z,6.67
2018-06-11T05:27:25.437Z,7.80
2018-06-11T05:29:56.040Z,5.80
2018-06-11T05:32:26.704Z,5.80
2018-06-11T05:34:57.296Z,6.43
2018-06-11T05:37:27.842Z,6.00
2018-06-11T05:39:58.404Z,5.43
2018-06-11T05:42:28.998Z,5.00
2018-06-11T05:44:59.642Z,6.10
2018-06-11T05:47:30.358Z,6.10
2018-06-11T05:50:01.033Z,6.40
2018-06-11T05:52:31.568Z,5.60
2018-06-11T05:55:02.168Z,6.00
2018-06-11T05:57:32.986Z,5.40
2018-06-11T06:00:03.676Z,6.20
2018-06-11T06:02:34.273Z,5.70
2018-06-11T06:05:05.088Z,6.90
2018-06-11T06:07:35.705Z,7.73
2018-06-11T06:10:06.387Z,7.90
2018-06-11T06:12:36.999Z,6.93
2018-06-11T06:15:07.866Z,7.17
2018-06-11T06:17:39.253Z,6.90
2018-06-11T06:20:09.880Z,5.90
2018-06-11T06:22:40.508Z,6.97
2018-06-11T06:25:11.196Z,7.10
2018-06-11T06:27:41.737Z,6.87
2018-06-11T06:30:12.345Z,7.30
2018-06-11T06:32:43.078Z,6.07
2018-06-11T06:35:13.790Z,7.13
2018-06-11T06:37:44.385Z,6.60
2018-06-11T06:40:15.186Z,6.70
2018-06-11T06:42:45.698Z,6.40
2018-06-11T06:45:16.347Z,6.17
2018-06-11T06:47:47.113Z,6.40
2018-06-11T06:50:17.916Z,6.10
2018-06-11T06:52:48.760Z,6.77
2018-06-11T06:55:19.270Z,6.17
2018-06-11T06:57:49.945Z,6.10
2018-06-11T07:00:20.608Z,6.40
2018-06-11T07:02:51.104Z,5.60
2018-06-11T07:05:21.859Z,5.50
2018-06-11T07:07:52.428Z,5.80
2018-06-11T07:10:23.173Z,5.20
2018-06-11T07:12:54.134Z,5.20
2018-06-11T07:15:24.844Z,5.70
2018-06-11T07:17:55.346Z,5.70
2018-06-11T07:20:26.019Z,5.13
2018-06-11T07:22:56.736Z,5.00
2018-06-11T07:25:27.254Z,5.97
2018-06-11T07:27:57.978Z,5.43
2018-06-11T07:30:28.589Z,5.83
2018-06-11T07:32:59.136Z,6.33
2018-06-11T07:35:30.046Z,6.43
2018-06-11T07:38:00.734Z,6.93
2018-06-11T07:40:31.351Z,7.27
2018-06-11T07:43:01.975Z,6.73
2018-06-11T07:45:32.614Z,7.80
2018-06-11T07:48:03.115Z,6.90
2018-06-11T07:50:33.670Z,6.97
2018-06-11T07:53:04.072Z,7.30
2018-06-11T07:55:34.668Z,9.07
2018-06-11T07:58:05.417Z,8.50
2018-06-11T08:00:36.076Z,8.23
2018-06-11T08:03:06.708Z,7.60
2018-06-11T08:05:37.287Z,8.57
2018-06-11T08:08:07.966Z,8.70
2018-06-11T08:10:38.679Z,7.47
2018-06-11T08:13:09.361Z,6.93
2018-06-11T08:15:39.931Z,8.23
2018-06-11T08:18:10.559Z,7.90
2018-06-11T08:20:42.406Z,8.70
2018-06-11T08:23:13.261Z,7.67
2018-06-11T08:25:43.868Z,8.30
2018-06-11T08:28:14.410Z,7.40
2018-06-11T08:30:44.880Z,8.60
2018-06-11T08:33:15.365Z,8.23
2018-06-11T08:35:46.153Z,8.33
2018-06-11T08:38:16.763Z,8.50
2018-06-11T08:40:47.383Z,9.70
2018-06-11T08:43:18.633Z,9.00
2018-06-11T08:45:49.157Z,8.70
2018-06-11T08:48:19.766Z,8.80
2018-06-11T08:50:50.605Z,9.50
2018-06-11T08:53:21.159Z,9.70
2018-06-11T08:55:51.865Z,10.47
2018-06-11T08:58:22.358Z,10.20
2018-06-11T09:00:53.468Z,9.43
2018-06-11T09:03:24.262Z,10.00
2018-06-11T09:05:54.872Z,9.20
2018-06-11T09:08:25.559Z,8.80
2018-06-11T09:10:56.365Z,9.93
2018-06-11T09:13:26.968Z,9.27
2018-06-11T09:15:57.327Z,9.13
2018-06-11T09:18:27.899Z,9.33
2018-06-11T09:20:58.583Z,9.13
2018-06-11T09:23:29.135Z,9.17
2018-06-11T09:26:00.371Z,9.73
2018-06-11T09:28:31.132Z,10.07
2018-06-11T09:31:01.938Z,10.03
2018-06-11T09:33:32.829Z,8.30
2018-06-11T09:36:03.335Z,7.87
2018-06-11T09:38:33.949Z,8.13
2018-06-11T09:41:04.671Z,7.93
2018-06-11T09:43:35.285Z,7.00
2018-06-11T09:46:05.916Z,7.50
2018-06-11T09:48:36.372Z,7.20
2018-06-11T09:51:07.187Z,6.30
2018-06-11T09:53:37.561Z,7.20
2018-06-11T09:56:08.133Z,6.83
2018-06-11T09:58:39.013Z,7.13
2018-06-11T10:01:09.544Z,7.27
2018-06-11T10:03:40.417Z,7.70
2018-06-11T10:06:10.977Z,7.17
2018-06-11T10:08:41.724Z,6.70
2018-06-11T10:11:15.374Z,7.30
2018-06-11T10:13:46.040Z,7.47
2018-06-11T10:16:16.698Z,7.83
2018-06-11T10:18:47.497Z,8.80
2018-06-11T10:21:18.412Z,7.43
2018-06-11T10:23:49.197Z,8.67
2018-06-11T10:26:19.776Z,6.90
2018-06-11T10:28:50.548Z,7.30
2018-06-11T10:31:21.124Z,7.20
2018-06-11T10:33:51.942Z,7.07
2018-06-11T10:36:22.501Z,7.13
2018-06-11T10:38:53.185Z,7.37
2018-06-11T10:41:23.812Z,6.77
2018-06-11T10:43:55.167Z,7.30
2018-06-11T10:46:25.857Z,8.17
2018-06-11T10:48:56.413Z,7.50
2018-06-11T10:51:26.968Z,8.60
2018-06-11T10:53:57.453Z,7.63
2018-06-11T10:56:28.065Z,7.50
2018-06-11T10:58:58.656Z,7.90
2018-06-11T11:01:29.120Z,8.17
2018-06-11T11:03:59.795Z,7.10
2018-06-11T11:06:30.384Z,8.23
2018-06-11T11:09:01.099Z,8.73
2018-06-11T11:11:31.586Z,7.90
2018-06-11T11:14:02.448Z,8.07
2018-06-11T11:16:33.083Z,8.63
2018-06-11T11:19:03.742Z,8.70
2018-06-11T11:21:34.885Z,7.70
2018-06-11T11:24:11.878Z,7.53
2018-06-11T11:26:42.531Z,7.50
2018-06-11T11:29:13.224Z,7.00
2018-06-11T11:31:43.904Z,7.50
2018-06-11T11:34:14.483Z,7.63
2018-06-11T11:36:45.198Z,8.93
2018-06-11T11:39:15.865Z,8.47
2018-06-11T11:41:46.381Z,8.40
2018-06-11T11:44:17.593Z,8.10
2018-06-11T11:46:48.437Z,7.87
2018-06-11T11:49:18.955Z,8.50
2018-06-11T11:51:50.357Z,7.70
2018-06-11T11:54:21.604Z,7.03
2018-06-11T11:56:52.096Z,7.50
2018-06-11T11:59:22.810Z,6.90
2018-06-11T12:01:53.604Z,8.77
2018-06-11T12:04:24.370Z,8.57
2018-06-11T12:06:54.992Z,8.17
2018-06-11T12:09:25.723Z,7.73
2018-06-11T12:11:56.268Z,8.40
2018-06-11T12:14:26.882Z,8.20
2018-06-11T12:16:57.496Z,9.30
2018-06-11T12:19:28.173Z,8.70
2018-06-11T12:21:59.195Z,9.20
2018-06-11T12:24:29.967Z,8.67
2018-06-11T12:27:00.500Z,9.07
2018-06-11T12:29:31.321Z,8.50
2018-06-11T12:32:01.844Z,8.97
2018-06-11T12:34:32.515Z,9.23
2018-06-11T12:37:03.233Z,9.40
2018-06-11T12:39:33.845Z,8.63
2018-06-11T12:42:04.495Z,10.03
2018-06-11T12:44:35.060Z,11.30
2018-06-11T12:47:05.768Z,10.43
2018-06-11T12:49:37.056Z,10.03
2018-06-11T12:52:07.839Z,10.03
2018-06-11T12:54:38.518Z,10.20
2018-06-11T12:57:09.342Z,11.17
2018-06-11T12:59:40.227Z,11.90
2018-06-11T13:02:10.520Z,11.50
2018-06-11T13:04:41.079Z,12.80
2018-06-11T13:07:11.864Z,10.97
2018-06-11T13:09:42.823Z,12.13
2018-06-11T13:12:13.790Z,12.40
2018-06-11T13:14:44.048Z,13.10
2018-06-11T13:17:14.717Z,11.63
2018-06-11T13:19:45.402Z,12.10
2018-06-11T13:22:16.377Z,12.67
2018-06-11T13:24:47.162Z,12.30
2018-06-11T13:27:17.715Z,11.80
2018-06-11T13:29:52.811Z,12.30
2018-06-11T13:32:23.674Z,10.90
2018-06-11T13:34:54.185Z,12.40
2018-06-11T13:37:25.055Z,12.53
2018-06-11T13:39:55.640Z,12.30
2018-06-11T13:42:26.387Z,12.37
2018-06-11T13:44:57.149Z,13.50
2018-06-11T13:47:27.849Z,13.70
2018-06-11T13:49:58.127Z,11.50
2018-06-11T13:52:28.740Z,13.63
2018-06-11T13:54:59.350Z,12.30
2018-06-11T13:57:29.795Z,12.80
2018-06-11T13:59:59.875Z,13.60
2018-06-11T14:02:30.318Z,13.43
2018-06-11T14:05:01.002Z,14.70
2018-06-11T14:07:31.685Z,13.17
2018-06-11T14:10:02.212Z,15.07
2018-06-11T14:12:33.764Z,14.80
2018-06-11T14:15:04.203Z,14.00
2018-06-11T14:17:34.844Z,16.03
2018-06-11T14:20:05.437Z,16.30
2018-06-11T14:22:36.542Z,15.57
2018-06-11T14:25:07.025Z,16.30
2018-06-11T14:27:37.664Z,17.90
2018-06-11T14:30:08.284Z,19.73
2018-06-11T14:32:39.168Z,19.20
2018-06-11T14:35:09.958Z,19.73
2018-06-11T14:37:40.502Z,19.63
2018-06-11T14:40:11.236Z,18.57
2018-06-11T14:42:42.158Z,19.67
2018-06-11T14:45:12.689Z,20.73
2018-06-11T14:47:43.553Z,20.30
2018-06-11T14:50:14.250Z,20.27
2018-06-11T14:52:45.106Z,23.10
2018-06-11T14:55:15.662Z,22.00
2018-06-11T14:57:46.183Z,22.47
2018-06-11T15:00:16.776Z,22.83
2018-06-11T15:02:47.820Z,22.57
2018-06-11T15:05:18.568Z,24.40
2018-06-11T15:07:49.348Z,22.73
2018-06-11T15:10:19.927Z,22.43
2018-06-11T15:12:50.622Z,22.60
2018-06-11T15:15:21.215Z,21.80
2018-06-11T15:17:52.013Z,22.50
2018-06-11T15:20:22.872Z,22.60
2018-06-11T15:22:54.425Z,24.27
2018-06-11T15:25:25.135Z,24.40
2018-06-11T15:27:55.874Z,22.53
2018-06-11T15:30:26.715Z,25.00
2018-06-11T15:32:57.460Z,23.90
2018-06-11T15:35:28.176Z,23.97
2018-06-11T15:37:58.956Z,22.90
2018-06-11T15:40:29.678Z,22.33
2018-06-11T15:43:00.432Z,21.80
2018-06-11T15:45:31.028Z,23.10
2018-06-11T15:48:01.785Z,22.13
2018-06-11T15:50:32.443Z,22.77
2018-06-11T15:53:03.259Z,22.77
2018-06-11T15:55:33.957Z,23.30
2018-06-11T15:58:04.756Z,20.20
2018-06-11T16:00:35.205Z,22.30
2018-06-11T16:03:05.809Z,22.17
2018-06-11T16:05:36.398Z,24.13
2018-06-11T16:08:06.904Z,22.40
2018-06-11T16:10:37.499Z,22.83
2018-06-11T16:13:08.094Z,22.67
2018-06-11T16:15:38.803Z,24.50
2018-06-11T16:18:10.175Z,22.00
2018-06-11T16:20:41.093Z,23.03
2018-06-11T16:23:11.701Z,22.47
2018-06-11T16:25:42.536Z,21.50
2018-06-11T16:28:14.225Z,21.57
2018-06-11T16:30:44.651Z,20.43
2018-06-11T16:33:15.295Z,22.97
2018-06-11T16:35:46.021Z,21.53
2018-06-11T16:38:16.717Z,18.77
2018-06-11T16:40:47.452Z,18.73
2018-06-11T16:43:18.088Z,17.37
2018-06-11T16:45:48.954Z,19.90
2018-06-11T16:48:19.510Z,18.63
2018-06-11T16:50:50.214Z,18.43
2018-06-11T16:53:22.164Z,16.60
2018-06-11T16:55:52.889Z,18.27
2018-06-11T16:58:23.551Z,19.90
2018-06-11T17:00:54.229Z,19.70
2018-06-11T17:03:24.931Z,19.03
2018-06-11T17:05:55.453Z,19.27
2018-06-11T17:08:26.046Z,21.30
2018-06-11T17:10:56.731Z,21.13
2018-06-11T17:13:27.460Z,19.60
2018-06-11T17:15:58.181Z,18.67
2018-06-11T17:18:28.970Z,17.70
2018-06-11T17:20:59.436Z,18.70
2018-06-11T17:23:29.838Z,17.97
2018-06-11T17:26:00.517Z,19.43
2018-06-11T17:28:31.446Z,18.93
2018-06-11T17:31:02.244Z,18.03
2018-06-11T17:33:32.958Z,20.10
2018-06-11T17:36:03.509Z,16.70
2018-06-11T17:38:33.975Z,17.40
2018-06-11T17:41:04.573Z,17.87
2018-06-11T17:43:35.264Z,17.20
2018-06-11T17:46:06.653Z,16.23
2018-06-11T17:48:38.144Z,17.40
2018-06-11T17:51:08.818Z,18.30
2018-06-11T17:53:39.527Z,18.43
2018-06-11T17:56:10.128Z,17.50
2018-06-11T17:58:41.093Z,17.30
2018-06-11T18:01:11.877Z,16.70
2018-06-11T18:03:42.727Z,16.70
2018-06-11T18:06:13.595Z,18.30
2018-06-11T18:08:43.912Z,17.97
2018-06-11T18:11:15.281Z,16.23
2018-06-11T18:13:46.332Z,15.97
2018-06-11T18:16:16.946Z,16.23
2018-06-11T18:18:47.626Z,17.20
2018-06-11T18:21:18.191Z,16.90
2018-06-11T18:23:49.157Z,16.10
2018-06-11T18:26:20.044Z,17.40
2018-06-11T18:28:50.588Z,18.63
2018-06-11T18:31:21.036Z,15.40
2018-06-11T18:33:51.565Z,18.03
2018-06-11T18:36:22.382Z,17.27
2018-06-11T18:38:52.920Z,16.20
2018-06-11T18:41:23.539Z,19.80
2018-06-11T18:43:54.867Z,19.83
2018-06-11T18:46:26.499Z,16.80
2018-06-11T18:48:58.158Z,17.33
2018-06-11T18:51:29.807Z,16.13
2018-06-11T18:54:00.710Z,16.50
2018-06-11T18:56:31.521Z,17.50
2018-06-11T18:59:01.799Z,18.37
2018-06-11T19:01:32.412Z,17.03
2018-06-11T19:04:03.748Z,15.47
2018-06-11T19:06:34.547Z,16.90
2018-06-11T19:09:07.789Z,15.80
2018-06-11T19:11:38.636Z,16.53
2018-06-11T19:14:09.340Z,16.43
2018-06-11T19:16:40.126Z,15.17
2018-06-11T19:19:10.792Z,15.87
2018-06-11T19:21:41.745Z,17.10
2018-06-11T19:24:13.212Z,17.40
2018-06-11T19:26:44.020Z,17.07
2018-06-11T19:29:15.040Z,18.00
2018-06-11T19:31:45.890Z,19.30
2018-06-11T19:34:16.482Z,16.93
2018-06-11T19:36:47.102Z,16.47
2018-06-11T19:39:17.880Z,16.53
2018-06-11T19:41:48.515Z,15.93
2018-06-11T19:44:19.297Z,15.57
2018-06-11T19:46:50.016Z,15.57
2018-06-11T19:49:20.655Z,16.40
2018-06-11T19:51:51.396Z,14.40
2018-06-11T19:54:24.105Z,15.70
2018-06-11T19:56:55.069Z,14.63
2018-06-11T19:59:25.890Z,14.13
2018-06-11T20:01:56.689Z,15.30
2018-06-11T20:04:27.656Z,15.80
2018-06-11T20:06:58.603Z,15.80
2018-06-11T20:09:29.152Z,13.50
2018-06-11T20:11:59.944Z,14.00
2018-06-11T20:14:31.398Z,15.33
2018-06-11T20:17:02.129Z,13.27
2018-06-11T20:19:32.717Z,12.20
2018-06-11T20:22:03.552Z,12.87
2018-06-11T20:24:34.213Z,13.93
2018-06-11T20:27:05.058Z,12.07
2018-06-11T20:29:36.198Z,15.30
2018-06-11T20:32:06.919Z,14.80
2018-06-11T20:34:37.677Z,13.27
2018-06-11T20:37:08.161Z,13.33
2018-06-11T20:39:39.022Z,12.80
2018-06-11T20:42:09.712Z,13.80
2018-06-11T20:44:40.498Z,14.37
2018-06-11T20:47:11.438Z,13.40
2018-06-11T20:49:42.454Z,13.80
2018-06-11T20:52:13.095Z,12.13
2018-06-11T20:54:43.998Z,12.27
2018-06-11T20:57:14.880Z,11.57
2018-06-11T20:59:48.838Z,11.80
2018-06-11T21:02:19.341Z,14.13
2018-06-11T21:04:51.183Z,13.30
2018-06-11T21:07:21.757Z,13.20
2018-06-11T21:09:53.092Z,14.77
2018-06-11T21:12:25.284Z,14.57
2018-06-11T21:14:55.980Z,12.40
2018-06-11T21:17:27.078Z,12.93
2018-06-11T21:20:01.083Z,14.47
2018-06-11T21:22:32.022Z,13.83
2018-06-11T21:25:02.296Z,12.30
2018-06-11T21:27:33.088Z,12.40
2018-06-11T21:30:03.911Z,12.17
2018-06-11T21:32:35.072Z,12.37
2018-06-11T21:35:05.861Z,12.57
2018-06-11T21:37:36.904Z,13.23
2018-06-11T21:40:08.044Z,13.03
2018-06-11T21:42:39.132Z,11.33
2018-06-11T21:45:09.862Z,12.00
2018-06-11T21:47:40.451Z,11.27
2018-06-11T21:50:11.062Z,12.50
2018-06-11T21:52:41.777Z,11.67
2018-06-11T21:55:12.488Z,11.80
2018-06-11T21:57:43.895Z,12.47
2018-06-11T22:00:14.568Z,12.80
2018-06-11T22:02:45.310Z,11.50
2018-06-11T22:05:16.146Z,12.00
2018-06-11T22:07:46.934Z,11.80
2018-06-11T22:10:17.749Z,11.40
2018-06-11T22:12:48.517Z,10.53
2018-06-11T22:15:18.732Z,10.00
2018-06-11T22:17:49.907Z,10.13
2018-06-11T22:20:21.096Z,10.10
2018-06-11T22:22:51.831Z,11.20
2018-06-11T22:25:22.413Z,10.07
2018-06-11T22:27:53.394Z,10.30
2018-06-11T22:30:24.134Z,12.00
2018-06-11T22:32:54.832Z,10.87
2018-06-11T22:35:25.825Z,10.50
2018-06-11T22:37:56.501Z,9.17
2018-06-11T22:40:27.272Z,11.50
2018-06-11T22:42:57.869Z,10.37
2018-06-11T22:45:28.589Z,11.30
2018-06-11T22:47:59.300Z,11.20
2018-06-11T22:50:29.818Z,12.00
2018-06-11T22:53:00.586Z,10.57
2018-06-11T22:55:31.049Z,9.83
2018-06-11T22:58:01.757Z,10.60
2018-06-11T23:00:35.140Z,10.63
2018-06-11T23:03:05.832Z,10.73
2018-06-11T23:05:36.445Z,9.90
2018-06-11T23:08:07.196Z,10.10
2018-06-11T23:10:37.846Z,9.90
2018-06-11T23:13:08.562Z,11.53
2018-06-11T23:15:39.253Z,9.40
2018-06-11T23:18:09.794Z,9.70
2018-06-11T23:20:40.333Z,9.77
2018-06-11T23:23:10.880Z,12.00
2018-06-11T23:25:41.976Z,9.87
2018-06-11T23:28:12.281Z,10.67
2018-06-11T23:30:42.817Z,10.20
2018-06-11T23:33:13.485Z,11.33
2018-06-11T23:35:44.228Z,10.13
2018-06-11T23:38:14.839Z,10.00
2018-06-11T23:40:45.541Z,9.40
2018-06-11T23:43:16.148Z,10.60
2018-06-11T23:45:46.720Z,10.37
2018-06-11T23:48:17.289Z,10.57
2018-06-11T23:50:47.900Z,8.60
2018-06-11T23:53:18.681Z,8.77
2018-06-11T23:55:49.240Z,10.33
2018-06-11T23:58:19.898Z,8.60
